St. George, Utah Weather observations

Data are for observation ending at time listed.
 Day   Time    Ave.   Ave.  Ave.  Vector   Max.   Stn.    Total    Solar   Ave.  
  of    of     Air    Rel.  Wind   Wind    Wind   Baro.  Precip.   Rad.    Soil  
Year   Day     Temp.  Hum.  Speed  Dir.    Gust   Pres.                    Temp. 
2015   (MST)    F      %     mph   deg.    mph     mb.     in.     W/m2     F   
------------------------------------------------------------------------------
  62    4:50   40.8    92    1.9   228      3.0   917.5    0.01       0    49.0
  62    5:00   40.8    92    0.6   272      2.4   917.6    0.00       0    48.9
  62    5:10   40.6    92    1.8   249      3.1   917.7    0.00       0    48.9
  62    5:20   40.4    92    2.2   312      4.9   917.6    0.01       0    48.9
  62    5:30   40.5    92    0.8    27      3.8   917.5    0.00       0    48.8
  62    5:40   40.9    92    0.3   139      1.1   917.4    0.00       0    48.8
  62    5:50   41.0    92    0.1    10      1.3   917.4    0.00       0    48.8
  62    6:00   41.0    92    0.4   103      1.6   917.5    0.00       0    48.8
  62    6:10   41.2    92    0.1   224      1.2   917.5    0.00       0    48.7
  62    6:20   40.9    92    1.4   250      3.4   917.6    0.02       0    48.7
  62    6:30   40.5    92    1.5   103      4.6   917.4    0.05       0    48.7
  62    6:40   40.6    92    2.4   187      5.3   917.3    0.01       0    48.7
  62    6:50   40.6    92    1.2   187      3.6   917.3    0.00       0    48.6
  62    7:00   40.4    92    0.5   302      1.3   917.3    0.00       1    48.5
  62    7:10   40.5    92    1.2   280      2.2   917.3    0.00       3    48.5
  62    7:20   40.4    92    0.7   334      1.7   917.3    0.00       3    48.4
  62    7:30   40.6    92    0.6   304      1.4   917.3    0.00       6    48.4
  62    7:40   40.6    92    1.1   257      2.3   917.2    0.00      18    48.4
  62    7:50   40.6    92    1.0   271      2.3   917.2    0.00      15    48.4
  62    8:00   40.6    92    1.2   230      2.3   917.2    0.00      16    48.3
  62    8:10   40.8    92    0.9   266      2.0   917.2    0.00      31    48.3
  62    8:20   40.8    92    1.1   288      2.1   917.3    0.00      54    48.3
  62    8:30   41.1    92    1.2   255      3.1   917.3    0.00     102    48.3
  62    8:40   41.3    91    1.5   264      2.7   917.4    0.00     112    48.3
  62    8:50   41.6    90    0.7   262      2.1   917.5    0.00     129    48.3
  62    9:00   41.9    89    0.9   220      2.9   917.5    0.00     191    48.3
  62    9:10   42.5    88    0.9   209      2.3   917.6    0.00     146    48.2
  62    9:20   42.5    87    1.2   228      2.4   917.5    0.00     165    48.2
  62    9:30   42.8    87    1.3   159      4.5   917.6    0.00     147    48.2
  62    9:40   42.4    87    1.9   189      3.7   917.8    0.00      64    48.2
  62    9:50   42.2    88    2.0   189      3.7   917.9    0.00      57    48.3
  62   10:00   42.4    87    1.1   198      2.4   918.0    0.00      65    48.3
  62   10:10   42.7    87    0.9   227      2.3   918.0    0.00      68    48.3
  62   10:20   42.9    86    0.2    64      0.9   918.0    0.00      75    48.3
  62   10:30   43.2    86    0.8   134      2.3   917.9    0.00     139    48.3
  62   10:40   43.6    85    0.6   154      2.3   917.9    0.00     139    48.4
  62   10:50   43.9    84    1.2    79      2.3   917.8    0.00     254    48.4
  62   11:00   44.6    82    1.0   326      3.4   917.8    0.00     480    48.4
  62   11:10   45.4    80    1.3    25      2.7   917.8    0.00     325    48.5
  62   11:20   46.0    80    0.8   250      3.6   917.8    0.00     263    48.5
  62   11:30   46.0    78    1.2   319      3.8   917.7    0.00     305    48.5
  62   11:40   46.2    77    1.8   208      4.6   917.6    0.00     437    48.5
  62   11:50   46.1    77    2.9   238      6.8   917.4    0.00     422    48.6
  62   12:00   46.7    76    3.6   270      7.8   917.4    0.00     482    48.7
  62   12:10   47.9    74    2.4   260      7.2   917.3    0.00     756    48.7
  62   12:20   49.0    70    3.3   238      8.5   917.1    0.00     819    48.8
  62   12:30   48.3    69    3.4   256      6.3   916.9    0.00     533    48.9
  62   12:40   49.6    66    2.0   283      5.3   916.7    0.00     715    49.0
  62   12:50   49.8    65    3.6   203      8.0   916.6    0.00     794    49.1
  62   13:00   49.6    65    4.8   201      9.0   916.4    0.00     607    49.2
  62   13:10   49.3    67    3.4   220      7.2   916.2    0.00     258    49.3
  62   13:20   49.3    66    3.0   192      6.3   916.1    0.00     267    49.5
  62   13:30   49.4    65    4.2   200      8.0   915.9    0.00     253    49.6
  62   13:40   50.4    60    6.0   217     10.5   915.8    0.00     737    49.7
  62   13:50   51.6    57    7.8   225     13.6   915.5    0.00     801    49.9
  62   14:00   50.9    56   10.7   235     19.6   915.3    0.00     886    50.0
  62   14:10   49.8    54   13.6   230     23.9   915.2    0.00     654    50.2
  62   14:20   48.9    56    8.5   239     16.4   915.2    0.00     407    50.4
  62   14:30   49.6    54    6.0   251     11.8   915.2    0.00     578    50.5
  62   14:40   50.7    52    4.8   275      9.9   915.2    0.00     615    50.7
  62   14:50   50.4    53    5.2   309     11.8   915.2    0.00     221    50.8
  62   15:00   49.0    56    8.1   353     15.3   915.2    0.00     303    50.9
  62   15:10   49.2    57    7.1   349     12.5   915.3    0.00     422    51.1
  62   15:20   49.0    61    5.5   348     12.9   915.3    0.00     177    51.3
  62   15:30   48.5    60    4.7   335      9.1   915.3    0.00     110    51.4
  62   15:40   48.7    60    3.2   309      6.4   915.4    0.00     164    51.5
  62   15:50   49.4    57    2.6   272      5.8   915.4    0.00     160    51.6
  62   16:00   49.2    57    3.5   245      6.9   915.4    0.00     121    51.7
  62   16:10   49.4    58    3.3   233      7.6   915.4    0.00     145    51.7
  62   16:20   49.1    60    5.2   230      8.3   915.5    0.00     297    51.8
  62   16:30   49.0    60    4.3   244      8.8   915.6    0.00     174    51.9
  62   16:40   46.3    70    9.1   334     16.4   915.9    0.00      28    52.0
  62   16:50   44.7    75    6.0   312     13.2   915.9    0.01      23    52.1
  62   17:00   44.2    78    3.6   235      9.7   915.7    0.01      32    52.1
  62   17:10   44.3    81    3.9   190      6.1   915.6    0.00      57    52.1
  62   17:20   44.6    82    3.6   211      6.4   915.8    0.00      43    52.1
  62   17:30   44.2    80    4.7   203      8.0   915.8    0.00      50    52.1
  62   17:40   43.8    82    6.3   192      9.6   915.8    0.00      46    52.1
  62   17:50   43.6    84    5.6   196      9.3   915.7    0.00      56    52.1
  62   18:00   43.9    82    5.0   187     10.4   915.9    0.00      42    52.1
  62   18:10   44.0    81    2.5   194      5.7   916.1    0.00      25    52.0
  62   18:20   43.9    78    3.9   202     10.0   916.2    0.00      15    52.0
  62   18:30   43.1    78    3.1   186      6.4   916.2    0.00       8    51.9
  62   18:40   42.9    79    1.8   182      3.9   916.2    0.00       3    51.9
  62   18:50   42.5    80    0.6   150      2.8   916.2    0.00       3    51.9
  62   19:00   42.5    81    2.1    96      4.3   916.4    0.00       1    51.8
  62   19:10   42.5    80    1.4   100      3.9   916.6    0.00       0    51.8
  62   19:20   42.4    80    1.5    81      3.9   916.8    0.00       0    51.7
  62   19:30   42.1    80    1.9    68      5.7   916.9    0.00       0    51.7
  62   19:40   42.1    80    1.6    44      3.4   917.2    0.00       0    51.6
  62   19:50   42.0    80    1.1   140      2.6   917.3    0.00       0    51.5
  62   20:00   41.7    82    1.7   268      2.8   917.5    0.00       0    51.4
  62   20:10   41.4    83    1.2   298      2.0   917.6    0.00       0    51.4
  62   20:20   41.1    84    1.1   279      2.3   917.6    0.00       0    51.3
  62   20:30   40.9    85    0.8   353      1.6   917.6    0.00       0    51.2
  62   20:40   40.9    85    0.3   235      1.4   917.6    0.00       0    51.2
  62   20:50   40.6    86    1.3   254      2.7   917.7    0.00       0    51.1
  62   21:00   40.4    86    0.2   146      1.1   917.8    0.00       0    51.0
  62   21:10   40.1    86    0.8   122      3.1   918.0    0.00       0    50.9
  62   21:20   39.9    87    0.6   162      1.9   918.1    0.00       0    50.9
  62   21:30   39.8    88    0.8   195      2.1   918.2    0.00       0    50.8
  62   21:40   39.7    88    0.6   353      2.6   918.4    0.00       0    50.7
  62   21:50   39.6    88    0.2    55      1.2   918.5    0.00       0    50.6
  62   22:00   39.3    87    0.6    73      2.3   918.6    0.00       0    50.6
  62   22:10   39.4    85    1.0    42      2.4   918.8    0.00       0    50.5
  62   22:20   39.4    84    0.3   359      1.2   918.9    0.00       0    50.4
  62   22:30   39.0    84    0.0   298      0.9   919.1    0.00       0    50.3
  62   22:40   39.0    84    0.7    34      1.8   919.2    0.00       0    50.3
  62   22:50   39.4    83    0.8    54      3.4   919.3    0.00       0    50.2
  62   23:00   39.1    82    0.8    43      2.3   919.3    0.00       0    50.1
  62   23:10   39.1    82    0.9    43      1.8   919.4    0.00       0    50.0
  62   23:20   39.1    83    0.5    43      1.7   919.4    0.00       0    50.0
  62   23:30   38.7    84    0.4    40      1.3   919.5    0.00       0    49.9
  62   23:40   38.6    85    0.5    50      1.5   919.6    0.00       0    49.8
  62   23:50   38.8    84    1.0    44      2.1   919.7    0.00       0    49.7
  63    0:00   38.3    84    1.4   254      2.7   919.9    0.00       0    49.7
  63    0:10   37.4    87    0.3   229      1.8   919.9    0.00       0    49.6
  63    0:20   37.3    88    0.3   258      1.2   920.0    0.00       0    49.5
  63    0:30   37.1    88    0.3   214      1.5   920.0    0.00       0    49.5
  63    0:40   36.8    88    0.3   286      1.5   920.2    0.00       0    49.4
  63    0:50   36.4    88    0.1    24      0.9   920.2    0.00       0    49.3
  63    1:00   36.1    88    0.4    30      1.5   920.2    0.00       0    49.3
  63    1:10   36.1    87    0.7    33      1.6   920.3    0.00       0    49.2
  63    1:20   36.1    86    0.7   171      2.5   920.3    0.00       0    49.1
  63    1:30   36.1    86    1.1   105      2.0   920.4    0.00       0    49.0
  63    1:40   35.9    83    0.4    85      1.5   920.5    0.00       0    49.0
  63    1:50   35.9    81    1.3     6      2.6   920.5    0.00       0    48.9
  63    2:00   35.9    81    1.3     9      2.6   920.5    0.00       0    48.8
  63    2:10   36.5    80    0.9     6      3.7   920.6    0.00       0    48.8
  63    2:20   35.8    81    0.7   196      3.1   920.6    0.00       0    48.7
  63    2:30   35.1    83    0.6   263      1.6   920.6    0.00       0    48.6
  63    2:40   34.9    84    0.6   332      1.7   920.6    0.00       0    48.5
  63    2:50   34.7    85    0.5   341      1.6   920.6    0.00       0    48.5
  63    3:00   34.7    86    0.8   345      2.0   920.6    0.00       0    48.4
  63    3:10   34.9    86    0.7    19      1.8   920.6    0.00       0    48.3
  63    3:20   34.7    86    1.1   137      2.9   920.7    0.00       0    48.3
  63    3:30   34.6    87    0.3     1      1.2   920.8    0.00       0    48.2
  63    3:40   34.1    88    1.6   306      2.6   920.8    0.00       0    48.1
  63    3:50   33.7    89    0.7   329      1.5   920.9    0.00       0    48.0
  63    4:00   33.8    89    0.3   343      1.5   920.9    0.00       0    48.0
  63    4:10   33.7    89    0.0   344      0.4   920.9    0.00       0    47.9
  63    4:20   33.5    89    0.0     0      0.0   921.0    0.00       0    47.8
  63    4:30   33.3    89    0.0     0      0.0   921.1    0.00       0    47.8
  63    4:40   33.3    90    0.1   344      0.5   921.1    0.00       0    47.7

Return to St. George, Utah graphs page.


Western Regional Climate Center,wrcc@dri.edu